MUNG/GER METAR and TAF weather

Enter ICAO airport designator
Station Type Date Time Source
MUNG METAR 2020/06/17 13:50 UTC NOAA

MUNG 171350Z VRB02KT 9999 FEW018 BKN090 27/26 Q1017


Station Type Date Time Source
MUNG Decoded METAR 2020/06/17 13:50 UTC NOAA

Nueva Gerona, Isla De Pinos, Cuba (MUNG) 21-50N 082-47W 23M
Jun 17, 2020 - 09:50 AM EDT / 2020.06.17 1350 UTC
Wind: Variable at 2 MPH (2 KT):0
Visibility: greater than 7 mile(s):0
Sky conditions: mostly cloudy
Temperature: 80 F (27 C)
Dew Point: 78 F (26 C)
Relative Humidity: 94%
Pressure (altimeter): 30.03 in. Hg (1017 hPa)
ob: MUNG 171350Z VRB02KT 9999 FEW018 BKN090 27/26 Q1017
cycle: 14

Station Type Date Time Source
MUNG TAF 2020/12/06 12:57 UTC NOAA

MUNG 061100Z 0612/0624 VRB03KT 9000 SCT020
TEMPO 0617/0622 BKN018

Example: see airport list